Time;durP1;ratioP1;P1;durP2;ratioP2;P2;SDS_P1;SDS_P2;PMS_P1;PMS_P2;Temp;Humidity;BMP_temperature;BMP_pressure;BME280_temperature;BME280_humidity;BME280_pressure;Samples;Min_cycle;Max_cycle;Signal;HPM_P1;HPM_P2
2021/09/23 00:00:11;;;;;;;7.35;3.65;;;14.50;79.00;;;;;;4945337;28;20047;-60
2021/09/23 00:05:15;;;;;;;8.02;4.15;;;14.50;79.20;;;;;;4948446;28;20105;-60
2021/09/23 00:07:43;;;;;;;7.93;3.53;;;14.50;80.00;;;;;;4966992;28;20051;-60
2021/09/23 00:10:11;;;;;;;6.80;4.35;;;14.50;79.50;;;;;;4961479;28;20138;-60
2021/09/23 00:12:38;;;;;;;8.02;3.78;;;14.40;80.80;;;;;;4949960;28;20133;-60
2021/09/23 00:15:06;;;;;;;5.20;4.00;;;14.40;80.40;;;;;;4949385;28;20614;-60
2021/09/23 00:17:33;;;;;;;5.90;3.50;;;14.30;80.40;;;;;;4967135;28;20050;-59
2021/09/23 00:20:00;;;;;;;7.60;3.88;;;14.30;80.30;;;;;;4949377;28;20086;-60
2021/09/23 00:22:27;;;;;;;7.00;3.22;;;14.40;80.20;;;;;;4936590;28;20499;-60
2021/09/23 00:24:54;;;;;;;7.43;3.55;;;14.40;80.00;;;;;;4964792;28;20050;-60
2021/09/23 00:27:21;;;;;;;8.20;4.55;;;14.40;80.10;;;;;;4961097;28;20495;-62
2021/09/23 00:29:47;;;;;;;6.53;3.42;;;14.40;80.20;;;;;;4966219;28;20050;-61
2021/09/23 00:32:14;;;;;;;9.07;3.90;;;14.40;80.30;;;;;;4947013;28;20046;-60
2021/09/23 00:34:41;;;;;;;5.85;3.60;;;14.40;80.20;;;;;;4966214;28;20046;-61
2021/09/23 00:37:08;;;;;;;9.13;4.85;;;14.40;80.10;;;;;;4957569;28;20668;-59
2021/09/23 00:39:34;;;;;;;10.18;4.40;;;14.40;80.20;;;;;;4947684;28;20078;-61
2021/09/23 00:42:04;;;;;;;6.43;4.03;;;14.40;80.00;;;;;;4947363;28;20039;-61
2021/09/23 00:44:30;;;;;;;8.25;4.15;;;14.40;80.10;;;;;;4966901;28;20054;-60
2021/09/23 00:46:57;;;;;;;4.90;4.00;;;14.30;80.20;;;;;;4958636;28;20058;-59
2021/09/23 00:49:24;;;;;;;10.80;4.15;;;14.40;80.30;;;;;;4963427;28;20051;-59
2021/09/23 00:51:51;;;;;;;7.28;3.88;;;14.30;80.30;;;;;;4932707;28;20051;-59
2021/09/23 00:54:18;;;;;;;4.78;3.72;;;14.30;80.50;;;;;;4966952;28;20043;-60
2021/09/23 00:56:45;;;;;;;7.22;4.35;;;14.30;80.50;;;;;;4952589;28;20053;-61
2021/09/23 00:59:11;;;;;;;6.82;4.32;;;14.20;80.60;;;;;;4967461;28;20699;-60
2021/09/23 01:01:45;;;;;;;6.38;4.45;;;14.20;80.60;;;;;;4949835;28;20043;-60
2021/09/23 01:04:15;;;;;;;7.07;4.40;;;14.20;80.60;;;;;;4965117;28;20078;-60
2021/09/23 01:06:42;;;;;;;8.02;4.85;;;14.20;81.40;;;;;;4958728;28;20107;-60
2021/09/23 01:09:08;;;;;;;10.27;4.50;;;14.20;81.10;;;;;;4965974;28;20376;-61
2021/09/23 01:11:35;;;;;;;9.18;4.90;;;14.20;80.90;;;;;;4623526;28;9999812;-60
2021/09/23 01:14:02;;;;;;;7.50;4.53;;;14.10;80.90;;;;;;4949504;28;20047;-61
2021/09/23 01:16:29;;;;;;;6.70;4.43;;;14.20;81.00;;;;;;4968921;28;20046;-59
2021/09/23 01:18:56;;;;;;;7.25;4.18;;;14.10;81.30;;;;;;4963840;28;20055;-60
2021/09/23 01:21:23;;;;;;;9.25;4.30;;;14.10;81.00;;;;;;4969465;28;20098;-59
2021/09/23 01:23:50;;;;;;;14.00;7.20;;;14.10;81.20;;;;;;4963775;28;20047;-60
2021/09/23 01:26:19;;;;;;;6.57;4.50;;;14.10;81.30;;;;;;4969603;28;20054;-60
2021/09/23 01:28:46;;;;;;;7.38;4.38;;;14.10;81.80;;;;;;4964560;28;20051;-60
2021/09/23 01:31:13;;;;;;;6.30;4.25;;;14.00;81.50;;;;;;4968755;28;20407;-60
2021/09/23 01:33:40;;;;;;;9.77;5.30;;;14.00;81.70;;;;;;4967407;28;20105;-60
2021/09/23 01:36:07;;;;;;;8.50;4.60;;;13.90;82.30;;;;;;4966701;28;20053;-60
2021/09/23 01:38:33;;;;;;;5.43;4.00;;;13.90;81.80;;;;;;4964793;28;20510;-59
2021/09/23 01:41:00;;;;;;;8.18;4.68;;;14.00;81.80;;;;;;4961159;28;20065;-60
2021/09/23 01:43:27;;;;;;;7.40;4.50;;;13.90;81.80;;;;;;4949416;28;20057;-60
2021/09/23 01:45:54;;;;;;;8.63;4.88;;;13.90;82.90;;;;;;4952147;28;20114;-61
2021/09/23 01:48:21;;;;;;;9.52;5.43;;;13.80;82.70;;;;;;4964691;28;20102;-61
2021/09/23 01:50:48;;;;;;;6.28;4.13;;;13.80;83.80;;;;;;4969226;28;20718;-60
2021/09/23 01:53:15;;;;;;;5.78;3.88;;;13.80;82.50;;;;;;4967838;28;20044;-60
2021/09/23 01:55:41;;;;;;;8.65;4.50;;;13.80;82.40;;;;;;4968653;28;20059;-61
2021/09/23 01:58:08;;;;;;;5.10;3.75;;;13.80;82.50;;;;;;4976308;28;20035;-60
2021/09/23 02:00:35;;;;;;;7.68;4.43;;;13.70;83.10;;;;;;4984848;28;20109;-60
2021/09/23 02:03:03;;;;;;;8.38;3.70;;;13.70;82.90;;;;;;4983449;28;20086;-60
2021/09/23 02:05:31;;;;;;;5.55;3.80;;;13.70;82.90;;;;;;4964234;28;20419;-59
2021/09/23 02:07:58;;;;;;;8.27;4.13;;;13.70;83.30;;;;;;4967300;28;20235;-60
2021/09/23 02:10:24;;;;;;;5.28;3.85;;;13.60;83.30;;;;;;4967265;28;20047;-60
2021/09/23 02:12:51;;;;;;;5.57;4.00;;;13.60;83.40;;;;;;4966221;28;20848;-59
2021/09/23 02:15:18;;;;;;;5.15;3.72;;;13.60;83.20;;;;;;4966164;28;20043;-60
2021/09/23 02:17:45;;;;;;;7.70;3.72;;;13.60;83.30;;;;;;4962854;28;20066;-60
2021/09/23 02:20:12;;;;;;;5.35;3.75;;;13.60;83.10;;;;;;4947287;28;20055;-60
2021/09/23 02:22:39;;;;;;;5.22;3.50;;;13.60;83.30;;;;;;4965931;28;20046;-60
2021/09/23 02:25:06;;;;;;;8.15;4.28;;;13.60;83.30;;;;;;4960394;28;20051;-60
2021/09/23 02:27:33;;;;;;;6.25;3.58;;;13.50;84.20;;;;;;4949706;28;20454;-60
2021/09/23 02:30:03;;;;;;;7.47;4.35;;;13.50;84.00;;;;;;4964229;28;20053;-59
2021/09/23 02:32:30;;;;;;;8.93;4.53;;;13.50;83.90;;;;;;4963102;28;20102;-60
2021/09/23 02:34:57;;;;;;;6.50;4.32;;;13.40;83.70;;;;;;4964959;28;20055;-60
2021/09/23 02:37:24;;;;;;;7.57;4.03;;;13.40;83.40;;;;;;4943562;28;20188;-61
2021/09/23 02:39:51;;;;;;;5.38;4.00;;;13.50;84.70;;;;;;4965026;28;20047;-60
2021/09/23 02:42:18;;;;;;;7.55;5.05;;;13.50;83.80;;;;;;4965112;28;20065;-61
2021/09/23 02:44:45;;;;;;;6.40;3.88;;;13.40;83.70;;;;;;4950992;28;20049;-60
2021/09/23 02:47:12;;;;;;;8.80;4.10;;;13.40;84.20;;;;;;4964543;28;20055;-59
2021/09/23 02:49:39;;;;;;;8.77;4.00;;;13.50;83.80;;;;;;4966846;28;20426;-60
2021/09/23 02:52:06;;;;;;;4.60;3.40;;;13.50;84.10;;;;;;4950696;28;20466;-60
2021/09/23 02:54:33;;;;;;;4.65;3.50;;;13.50;83.90;;;;;;4968603;28;20449;-61
2021/09/23 02:56:59;;;;;;;7.07;4.07;;;13.60;84.00;;;;;;4951809;28;20050;-60
2021/09/23 02:59:26;;;;;;;5.47;4.15;;;13.60;83.60;;;;;;4969065;28;20047;-60
2021/09/23 03:01:53;;;;;;;7.03;4.43;;;13.70;83.50;;;;;;4952520;28;20054;-59
2021/09/23 03:04:20;;;;;;;6.30;4.35;;;13.70;83.60;;;;;;4921928;28;20129;-60
2021/09/23 03:06:47;;;;;;;6.72;4.32;;;13.80;83.20;;;;;;4968677;28;20092;-61
2021/09/23 03:09:14;;;;;;;6.53;5.10;;;13.80;83.10;;;;;;4968098;28;20510;-60
2021/09/23 03:11:42;;;;;;;8.35;5.15;;;13.90;83.00;;;;;;4968139;28;20604;-60
2021/09/23 03:14:09;;;;;;;6.90;5.53;;;13.90;82.70;;;;;;4971727;28;20077;-61
2021/09/23 03:16:35;;;;;;;6.82;4.93;;;14.00;82.60;;;;;;4978990;28;20098;-60
2021/09/23 03:19:02;;;;;;;7.90;6.07;;;14.00;82.30;;;;;;4981801;28;20058;-60
2021/09/23 03:21:29;;;;;;;8.70;6.35;;;14.10;82.30;;;;;;4981222;28;20046;-61
2021/09/23 03:23:56;;;;;;;7.20;5.65;;;14.20;82.30;;;;;;4978430;28;20094;-63
2021/09/23 03:26:23;;;;;;;7.40;4.95;;;14.10;82.10;;;;;;4976683;28;20051;-60
2021/09/23 03:28:49;;;;;;;6.65;4.88;;;14.10;82.20;;;;;;4978489;28;20122;-58
2021/09/23 03:31:16;;;;;;;8.23;4.85;;;14.20;82.30;;;;;;4961440;28;20122;-60
2021/09/23 03:33:43;;;;;;;6.40;4.85;;;14.20;82.30;;;;;;4972882;28;20046;-61
2021/09/23 03:36:10;;;;;;;8.98;5.18;;;14.20;81.90;;;;;;4979964;28;20057;-59
2021/09/23 03:38:37;;;;;;;6.22;4.72;;;14.20;82.00;;;;;;4977827;28;20050;-59
2021/09/23 03:41:04;;;;;;;5.75;4.22;;;14.30;82.00;;;;;;4977352;28;20304;-60
2021/09/23 03:43:30;;;;;;;6.78;4.65;;;14.30;81.80;;;;;;4974942;28;20061;-60
2021/09/23 03:46:03;;;;;;;5.18;4.03;;;14.30;81.90;;;;;;4978447;28;20216;-60
2021/09/23 03:48:31;;;;;;;4.53;4.10;;;14.30;82.00;;;;;;4981440;28;20039;-59
2021/09/23 03:50:58;;;;;;;6.43;4.30;;;14.20;81.80;;;;;;4985877;28;20043;-60
2021/09/23 03:53:25;;;;;;;5.25;4.60;;;14.30;82.00;;;;;;4974643;28;20047;-59
2021/09/23 03:55:52;;;;;;;6.85;5.93;;;14.30;81.80;;;;;;4990956;28;20102;-61
2021/09/23 03:58:19;;;;;;;5.22;4.50;;;14.30;81.90;;;;;;4983867;28;20051;-60
2021/09/23 04:01:12;;;;;;;7.53;5.45;;;14.20;81.70;;;;;;4978879;28;20038;-59
2021/09/23 04:07:41;;;;;;;9.55;4.88;;;14.10;82.30;;;;;;4978030;28;20762;-60
2021/09/23 04:10:08;;;;;;;9.52;5.20;;;14.10;81.30;;;;;;4971351;28;20054;-61
2021/09/23 04:12:36;;;;;;;6.68;4.72;;;14.00;81.90;;;;;;4974684;28;20061;-60
2021/09/23 04:15:30;;;;;;;7.22;5.10;;;14.00;81.50;;;;;;4972511;28;20049;-60
2021/09/23 04:18:02;;;;;;;5.78;4.65;;;13.90;82.40;;;;;;4983384;28;20054;-61
2021/09/23 04:20:28;;;;;;;10.38;4.85;;;13.90;81.50;;;;;;4984212;28;20067;-60
2021/09/23 04:22:56;;;;;;;6.00;4.47;;;13.90;81.50;;;;;;4984480;28;20513;-60
2021/09/23 04:25:22;;;;;;;7.50;5.45;;;13.90;81.40;;;;;;4978742;28;20062;-60
2021/09/23 04:27:51;;;;;;;7.38;4.78;;;13.90;81.30;;;;;;4984413;28;20118;-60
2021/09/23 04:30:18;;;;;;;7.20;5.65;;;13.90;81.30;;;;;;4978133;28;20039;-61
2021/09/23 04:32:45;;;;;;;6.03;5.40;;;13.80;81.30;;;;;;4988675;28;20054;-61
2021/09/23 04:35:11;;;;;;;7.22;5.28;;;13.80;82.00;;;;;;4981138;28;20039;-60
2021/09/23 04:37:38;;;;;;;7.57;5.00;;;13.80;81.40;;;;;;4990629;28;20180;-61
2021/09/23 04:40:06;;;;;;;6.72;5.13;;;13.80;81.40;;;;;;4983271;28;20478;-61
2021/09/23 04:42:33;;;;;;;7.43;5.75;;;13.80;81.30;;;;;;4988167;28;20043;-60
2021/09/23 04:44:59;;;;;;;10.77;6.13;;;13.70;81.30;;;;;;4977123;28;20030;-60
2021/09/23 04:47:26;;;;;;;7.55;5.95;;;13.70;81.40;;;;;;4987171;28;20110;-59
2021/09/23 04:49:53;;;;;;;6.22;5.22;;;13.70;81.40;;;;;;4970608;28;20050;-61
2021/09/23 04:53:16;;;;;;;8.75;5.43;;;13.70;81.50;;;;;;4991127;28;20051;-61
2021/09/23 04:56:16;;;;;;;7.50;5.55;;;13.60;83.10;;;;;;4978302;28;20049;-58
2021/09/23 04:58:43;;;;;;;7.10;5.80;;;13.60;81.70;;;;;;4981387;28;20051;-59
2021/09/23 05:01:10;;;;;;;7.82;5.80;;;13.50;81.80;;;;;;4978845;28;20070;-59
2021/09/23 05:03:37;;;;;;;8.23;6.18;;;13.50;82.00;;;;;;4982466;28;20069;-59
2021/09/23 05:06:05;;;;;;;7.47;5.28;;;13.50;82.10;;;;;;4957580;28;20043;-60
2021/09/23 05:08:32;;;;;;;9.48;7.13;;;13.50;82.20;;;;;;4971975;28;20050;-61
2021/09/23 05:10:58;;;;;;;8.73;6.45;;;13.40;82.60;;;;;;4966142;28;20047;-60
2021/09/23 05:13:25;;;;;;;9.23;5.93;;;13.40;82.30;;;;;;4969513;28;20098;-60
2021/09/23 05:15:52;;;;;;;8.75;5.90;;;13.40;82.40;;;;;;4969215;28;20062;-59
2021/09/23 05:18:19;;;;;;;11.68;6.03;;;13.40;82.40;;;;;;4954102;28;20046;-59
2021/09/23 05:20:46;;;;;;;11.05;5.68;;;13.40;82.90;;;;;;4968881;28;20482;-60
2021/09/23 05:23:15;;;;;;;7.05;4.88;;;13.40;82.70;;;;;;4967050;28;20042;-60
2021/09/23 05:25:42;;;;;;;8.30;5.10;;;13.40;82.70;;;;;;4966662;28;20521;-60
2021/09/23 05:28:08;;;;;;;7.03;4.90;;;13.30;83.20;;;;;;4969124;28;20082;-61
2021/09/23 05:30:36;;;;;;;5.70;4.10;;;13.30;82.90;;;;;;4965801;28;20155;-60
2021/09/23 05:33:03;;;;;;;5.28;4.57;;;13.40;83.00;;;;;;4969457;28;20105;-60
2021/09/23 05:35:30;;;;;;;8.13;3.40;;;13.40;83.40;;;;;;4970352;28;20149;-60
2021/09/23 05:37:57;;;;;;;5.90;3.67;;;13.40;83.30;;;;;;4956570;28;20050;-61
2021/09/23 05:40:24;;;;;;;7.13;3.25;;;13.30;83.40;;;;;;4982200;28;20049;-60
2021/09/23 05:42:51;;;;;;;4.63;3.33;;;13.30;83.20;;;;;;4966470;28;20113;-60
2021/09/23 05:45:18;;;;;;;4.68;2.85;;;13.40;83.60;;;;;;4966348;28;20043;-60
2021/09/23 05:47:46;;;;;;;3.38;2.75;;;13.40;83.40;;;;;;4980912;28;20042;-59
2021/09/23 05:50:13;;;;;;;3.90;2.63;;;13.40;83.60;;;;;;4974158;28;20050;-61
2021/09/23 05:52:40;;;;;;;5.30;2.50;;;13.40;83.70;;;;;;4970225;28;20053;-60
2021/09/23 05:55:07;;;;;;;11.80;2.58;;;13.40;83.60;;;;;;4980641;28;20046;-60
2021/09/23 05:57:34;;;;;;;4.07;2.70;;;13.40;83.60;;;;;;4977495;28;20544;-65
2021/09/23 06:00:05;;;;;;;3.80;1.95;;;13.40;83.60;;;;;;4979808;28;20047;-59
2021/09/23 06:02:33;;;;;;;4.55;1.73;;;13.40;84.40;;;;;;4965974;28;20058;-62
2021/09/23 06:05:00;;;;;;;2.53;1.73;;;13.40;83.80;;;;;;4968749;28;20046;-60
2021/09/23 06:07:27;;;;;;;4.55;1.95;;;13.50;83.80;;;;;;4951203;28;20062;-59
2021/09/23 06:09:54;;;;;;;7.38;2.15;;;13.50;83.80;;;;;;4968325;28;20051;-60
2021/09/23 06:12:21;;;;;;;7.35;1.60;;;13.50;83.60;;;;;;4965333;28;20105;-60
2021/09/23 06:14:49;;;;;;;3.00;1.63;;;13.60;83.70;;;;;;4936196;28;20047;-59
2021/09/23 06:17:16;;;;;;;5.28;1.73;;;13.50;83.60;;;;;;4965853;28;20042;-59
2021/09/23 06:19:43;;;;;;;5.53;2.03;;;13.60;83.50;;;;;;4964249;28;20418;-60
2021/09/23 06:22:10;;;;;;;8.23;1.88;;;13.60;83.50;;;;;;4963589;28;20043;-61
2021/09/23 06:24:37;;;;;;;9.77;1.80;;;13.70;83.60;;;;;;4965672;28;20057;-59
2021/09/23 06:27:04;;;;;;;2.03;1.13;;;13.80;83.90;;;;;;4965654;28;20067;-59
2021/09/23 06:29:31;;;;;;;2.65;1.10;;;13.80;83.30;;;;;;4950003;28;20059;-59
2021/09/23 06:31:58;;;;;;;1.73;1.10;;;13.70;83.40;;;;;;4966297;28;20047;-59
2021/09/23 06:34:25;;;;;;;3.50;1.50;;;13.80;83.50;;;;;;4968049;28;20054;-60
2021/09/23 06:36:52;;;;;;;4.88;1.85;;;13.90;84.00;;;;;;4948900;28;20410;-58
2021/09/23 06:39:19;;;;;;;4.60;1.13;;;13.90;83.70;;;;;;4946271;28;20065;-60
2021/09/23 06:41:46;;;;;;;6.20;2.15;;;13.90;83.50;;;;;;4967749;28;20478;-60
2021/09/23 06:44:13;;;;;;;4.35;1.50;;;14.00;83.60;;;;;;4961990;28;20046;-59
2021/09/23 06:46:39;;;;;;;5.40;1.88;;;14.00;83.80;;;;;;4959668;28;20709;-59
2021/09/23 06:49:07;;;;;;;5.60;1.88;;;14.00;83.50;;;;;;4963582;28;20053;-61
2021/09/23 06:51:33;;;;;;;3.92;1.20;;;14.10;84.00;;;;;;4956414;28;20058;-61
2021/09/23 06:54:07;;;;;;;4.00;1.38;;;14.10;83.40;;;;;;4964033;28;20075;-60
2021/09/23 06:56:34;;;;;;;6.60;1.85;;;14.20;83.40;;;;;;4967036;28;20423;-59
2021/09/23 06:59:19;;;;;;;3.47;1.02;;;14.20;83.20;;;;;;4935070;28;20070;-60
2021/09/23 07:01:48;;;;;;;6.25;1.67;;;14.20;83.20;;;;;;4963858;28;20078;-61
2021/09/23 07:04:16;;;;;;;5.07;1.10;;;14.30;83.20;;;;;;4963126;28;20070;-60
2021/09/23 07:06:43;;;;;;;6.43;1.40;;;14.40;83.90;;;;;;4967115;28;20495;-61
2021/09/23 07:09:10;;;;;;;4.50;1.92;;;14.40;83.10;;;;;;4949197;28;20750;-59
2021/09/23 07:11:37;;;;;;;4.43;1.52;;;14.50;83.30;;;;;;4972835;28;20053;-60
2021/09/23 07:14:04;;;;;;;10.90;1.70;;;14.50;83.00;;;;;;4966017;28;20783;-59
2021/09/23 07:16:30;;;;;;;3.80;1.60;;;14.60;83.40;;;;;;4965326;28;20057;-59
2021/09/23 07:18:57;;;;;;;4.00;1.23;;;14.60;82.90;;;;;;4949387;28;20057;-60
2021/09/23 07:21:24;;;;;;;8.38;1.98;;;14.70;82.80;;;;;;4946728;28;20061;-59
2021/09/23 07:23:51;;;;;;;4.93;1.40;;;14.80;82.70;;;;;;4965257;28;20125;-59
2021/09/23 07:26:19;;;;;;;1.75;1.25;;;14.80;82.50;;;;;;4940459;28;20742;-60
2021/09/23 07:28:46;;;;;;;3.75;2.00;;;14.80;82.50;;;;;;4966285;28;20054;-59
2021/09/23 07:31:13;;;;;;;4.47;1.20;;;14.90;82.60;;;;;;4963923;28;20054;-59
2021/09/23 07:33:40;;;;;;;3.47;1.00;;;14.90;82.20;;;;;;4951403;28;20051;-59
2021/09/23 07:36:07;;;;;;;5.40;1.63;;;15.00;82.40;;;;;;4951493;28;20070;-60
2021/09/23 07:38:42;;;;;;;13.07;2.17;;;15.10;82.30;;;;;;4965096;28;20081;-60
2021/09/23 07:41:09;;;;;;;14.07;3.25;;;15.10;82.10;;;;;;4966242;28;20046;-60
2021/09/23 07:43:37;;;;;;;3.85;1.40;;;15.20;82.20;;;;;;4965061;28;20110;-63
2021/09/23 07:46:07;;;;;;;4.60;1.80;;;15.20;81.90;;;;;;4968236;28;20043;-60
2021/09/23 07:48:34;;;;;;;5.47;1.60;;;15.20;81.80;;;;;;4971020;28;20050;-59
2021/09/23 07:51:45;;;;;;;3.83;1.58;;;15.30;81.80;;;;;;4980114;28;20034;-60
2021/09/23 07:55:34;;;;;;;4.53;1.52;;;15.30;81.50;;;;;;4981997;28;20030;-59
2021/09/23 08:10:49;;;;;;;4.53;1.48;;;15.50;81.10;;;;;;4922265;29;20468;-59
2021/09/23 08:13:45;;;;;;;5.82;1.70;;;15.60;81.10;;;;;;4906496;29;20184;-60
2021/09/23 08:16:12;;;;;;;4.95;1.63;;;15.60;81.00;;;;;;4893757;29;20392;-58
2021/09/23 08:18:39;;;;;;;9.85;2.03;;;15.60;81.00;;;;;;4910692;29;20078;-55
2021/09/23 08:21:05;;;;;;;9.05;1.98;;;15.60;81.00;;;;;;4910732;29;20070;-56
2021/09/23 08:23:32;;;;;;;3.58;1.60;;;15.70;81.00;;;;;;4911254;29;20219;-56
2021/09/23 08:26:14;;;;;;;6.35;1.60;;;15.70;80.90;;;;;;4903510;29;20463;-58
2021/09/23 08:28:41;;;;;;;5.80;2.78;;;15.80;80.70;;;;;;4910654;29;20055;-54
2021/09/23 08:31:09;;;;;;;5.15;2.28;;;15.90;80.70;;;;;;4910728;29;20059;-59
2021/09/23 08:33:36;;;;;;;6.80;2.45;;;16.00;80.60;;;;;;4911401;29;20154;-56
2021/09/23 08:36:03;;;;;;;15.90;2.40;;;15.90;80.30;;;;;;4898917;29;20463;-55
2021/09/23 08:38:30;;;;;;;7.90;2.17;;;15.90;80.40;;;;;;4915708;28;20063;-56
2021/09/23 08:40:57;;;;;;;4.35;1.80;;;15.90;80.40;;;;;;4970934;28;20101;-55
2021/09/23 08:43:24;;;;;;;9.45;3.45;;;15.90;80.60;;;;;;4951840;28;20134;-55
2021/09/23 08:45:57;;;;;;;8.48;1.52;;;16.00;81.00;;;;;;4965896;28;20145;-58
2021/09/23 08:48:24;;;;;;;4.18;2.22;;;16.00;80.20;;;;;;4965277;28;20528;-54
2021/09/23 08:50:51;;;;;;;4.20;2.45;;;16.10;80.20;;;;;;4970970;28;20051;-55
2021/09/23 08:53:29;;;;;;;8.00;2.47;;;16.10;80.10;;;;;;4967079;28;20094;-56
2021/09/23 08:55:56;;;;;;;12.98;1.77;;;16.20;80.20;;;;;;4932644;28;20066;-56
2021/09/23 08:58:24;;;;;;;6.60;1.92;;;16.30;79.50;;;;;;4960410;28;20471;-57
2021/09/23 09:01:08;;;;;;;6.72;1.95;;;16.30;79.60;;;;;;4965818;28;20046;-56
2021/09/23 09:03:36;;;;;;;;;;;16.60;79.00;;;;;;4961830;28;20111;-57
2021/09/23 09:06:12;;;;;;;8.15;1.65;;;16.80;78.50;;;;;;4621401;28;10000196;-56
2021/09/23 09:08:39;;;;;;;4.93;2.65;;;17.00;78.20;;;;;;4967530;28;20149;-56
2021/09/23 09:11:11;;;;;;;4.10;1.65;;;17.00;78.30;;;;;;4967297;28;20133;-56
2021/09/23 09:13:40;;;;;;;5.97;1.67;;;16.90;78.30;;;;;;4962283;28;20063;-55
2021/09/23 09:16:08;;;;;;;5.55;1.75;;;16.90;78.70;;;;;;4966553;28;20043;-58
2021/09/23 09:18:36;;;;;;;3.63;1.67;;;16.90;79.10;;;;;;4967797;28;20074;-58
2021/09/23 09:21:09;;;;;;;6.13;1.40;;;17.00;79.00;;;;;;4968588;28;20051;-58
2021/09/23 09:23:46;;;;;;;5.32;2.38;;;17.30;77.80;;;;;;4949406;28;20097;-57
2021/09/23 09:26:32;;;;;;;3.97;1.77;;;17.60;77.70;;;;;;4970057;28;20058;-58
2021/09/23 09:29:01;;;;;;;6.38;1.73;;;17.60;76.90;;;;;;4952613;28;20130;-58
2021/09/23 09:31:28;;;;;;;12.27;1.88;;;17.50;77.40;;;;;;4965166;28;20054;-56
2021/09/23 09:33:56;;;;;;;7.68;1.92;;;17.40;77.30;;;;;;4952355;28;20043;-59
2021/09/23 09:36:36;;;;;;;19.40;2.10;;;17.30;77.50;;;;;;4965606;28;20046;-57
2021/09/23 09:39:11;;;;;;;4.38;1.83;;;17.20;78.20;;;;;;4954524;28;20098;-58
2021/09/23 09:41:39;;;;;;;4.57;1.88;;;17.30;78.20;;;;;;4960106;28;20047;-57
2021/09/23 09:44:08;;;;;;;6.07;2.20;;;17.40;77.60;;;;;;4957720;28;20129;-59
2021/09/23 09:46:39;;;;;;;3.70;1.60;;;17.50;78.00;;;;;;4956763;28;20561;-58
2021/09/23 09:49:06;;;;;;;6.13;1.90;;;17.60;77.80;;;;;;4955171;28;20058;-56
2021/09/23 09:51:35;;;;;;;2.88;1.58;;;17.50;78.00;;;;;;4950301;28;20094;-58
2021/09/23 09:54:03;;;;;;;10.18;1.90;;;17.40;77.80;;;;;;4956881;28;20130;-58
2021/09/23 09:56:30;;;;;;;7.32;1.80;;;17.50;78.00;;;;;;4957656;28;20039;-59
2021/09/23 09:59:14;;;;;;;6.40;2.15;;;17.50;77.90;;;;;;4959601;28;20054;-58
2021/09/23 10:01:49;;;;;;;6.20;1.85;;;17.50;78.30;;;;;;4956692;28;20047;-58
2021/09/23 10:04:17;;;;;;;9.15;1.67;;;17.60;78.10;;;;;;4938790;28;20054;-59
2021/09/23 10:06:44;;;;;;;4.10;1.83;;;17.70;77.90;;;;;;4960736;28;20050;-58
2021/09/23 10:09:12;;;;;;;8.63;2.38;;;17.70;77.70;;;;;;4956295;28;20047;-58
2021/09/23 10:11:42;;;;;;;12.88;2.35;;;17.80;78.10;;;;;;4953858;28;20042;-56
2021/09/23 10:14:08;;;;;;;3.72;1.92;;;17.80;77.30;;;;;;4961034;28;20054;-58
2021/09/23 10:16:35;;;;;;;4.82;1.90;;;18.00;77.80;;;;;;4958219;28;20047;-58
2021/09/23 10:19:02;;;;;;;11.30;2.22;;;18.00;77.10;;;;;;4956195;28;20133;-59
2021/09/23 10:21:29;;;;;;;8.90;2.00;;;18.10;77.30;;;;;;4958520;28;20158;-58
2021/09/23 10:23:57;;;;;;;7.43;2.10;;;18.20;77.00;;;;;;4951540;28;20154;-58
2021/09/23 10:26:27;;;;;;;12.38;1.70;;;18.10;76.80;;;;;;4951064;28;20055;-58
2021/09/23 10:28:55;;;;;;;7.53;2.05;;;18.10;77.80;;;;;;4944255;28;20051;-59
2021/09/23 10:31:33;;;;;;;6.63;1.88;;;18.10;77.40;;;;;;4954462;28;20506;-58
2021/09/23 10:34:01;;;;;;;8.40;2.00;;;18.10;76.80;;;;;;4979811;28;20050;-58
2021/09/23 10:36:32;;;;;;;7.35;2.08;;;18.20;76.90;;;;;;4973276;28;20174;-58
2021/09/23 10:39:05;;;;;;;5.18;1.90;;;18.30;77.20;;;;;;4973015;28;20054;-57
2021/09/23 10:41:32;;;;;;;8.00;2.03;;;18.40;76.60;;;;;;4975042;28;20054;-59
2021/09/23 10:44:00;;;;;;;5.78;1.20;;;18.40;76.60;;;;;;4981237;28;20126;-58
2021/09/23 10:46:27;;;;;;;8.80;2.03;;;18.40;76.50;;;;;;4954712;28;20061;-60
2021/09/23 10:48:55;;;;;;;6.50;1.73;;;18.60;76.60;;;;;;4983004;28;21499;-59
2021/09/23 10:51:22;;;;;;;8.18;1.90;;;18.60;76.20;;;;;;4975036;28;20051;-57
2021/09/23 10:53:56;;;;;;;5.63;1.90;;;18.70;75.50;;;;;;4976913;28;20477;-58
2021/09/23 10:56:24;;;;;;;6.72;1.55;;;18.70;75.80;;;;;;4976123;28;20051;-59
2021/09/23 10:58:51;;;;;;;13.13;2.08;;;18.70;75.80;;;;;;4977782;28;20050;-57
2021/09/23 11:01:30;;;;;;;6.07;2.00;;;18.70;76.00;;;;;;4975261;28;20431;-58
2021/09/23 11:04:00;;;;;;;8.10;2.20;;;18.80;75.60;;;;;;4975379;28;20052;-56
2021/09/23 11:06:36;;;;;;;8.75;1.77;;;18.80;76.40;;;;;;4973113;28;20061;-58
2021/09/23 11:09:26;;;;;;;2.50;1.20;;;18.90;75.70;;;;;;4974194;28;20457;-57
2021/09/23 11:11:59;;;;;;;7.63;2.00;;;18.90;75.00;;;;;;4973472;28;20046;-58
2021/09/23 11:14:27;;;;;;;27.73;6.40;;;19.00;75.70;;;;;;4981584;28;20050;-56
2021/09/23 11:16:58;;;;;;;11.68;3.08;;;19.00;75.70;;;;;;4971181;28;20046;-57
2021/09/23 11:19:25;;;;;;;6.80;3.03;;;19.00;75.40;;;;;;4976920;28;20129;-57
2021/09/23 11:21:56;;;;;;;8.48;2.78;;;19.00;75.70;;;;;;4975235;28;20162;-58
2021/09/23 11:24:24;;;;;;;5.85;1.90;;;19.00;75.70;;;;;;4979514;28;20049;-58
2021/09/23 11:26:51;;;;;;;7.65;1.88;;;19.20;75.70;;;;;;4977390;28;20073;-58
2021/09/23 11:29:19;;;;;;;3.38;1.40;;;19.30;75.70;;;;;;4950927;28;20051;-58
2021/09/23 11:31:50;;;;;;;7.25;2.13;;;19.30;75.30;;;;;;4942377;28;20093;-57
2021/09/23 11:34:37;;;;;;;5.70;1.55;;;19.30;75.10;;;;;;4951053;28;20589;-57
2021/09/23 11:37:05;;;;;;;10.00;2.28;;;19.30;74.60;;;;;;4938544;28;20050;-58
2021/09/23 11:39:32;;;;;;;4.63;1.70;;;19.30;75.00;;;;;;4951486;28;20055;-59
2021/09/23 11:42:10;;;;;;;7.13;1.92;;;19.40;74.70;;;;;;4938376;28;20513;-58
2021/09/23 11:44:37;;;;;;;4.43;1.55;;;19.30;74.50;;;;;;4958701;28;20065;-56
2021/09/23 11:47:21;;;;;;;5.03;1.67;;;19.50;75.10;;;;;;4958918;28;20047;-57
2021/09/23 11:49:50;;;;;;;10.38;1.92;;;19.60;74.80;;;;;;4955478;28;20069;-56
2021/09/23 11:52:17;;;;;;;7.03;1.65;;;19.80;74.50;;;;;;4956256;28;20469;-58
2021/09/23 11:54:44;;;;;;;9.02;1.95;;;19.80;74.20;;;;;;4937533;28;20051;-58
2021/09/23 11:57:24;;;;;;;7.80;1.85;;;19.90;74.50;;;;;;4945661;28;20047;-57
2021/09/23 11:59:56;;;;;;;8.75;1.92;;;20.00;73.60;;;;;;4932684;28;20059;-57
2021/09/23 12:02:23;;;;;;;8.80;2.30;;;20.00;73.10;;;;;;4955876;28;20043;-58
2021/09/23 12:04:54;;;;;;;12.25;2.00;;;20.10;73.80;;;;;;4955352;28;20101;-57
2021/09/23 12:07:21;;;;;;;5.40;1.60;;;20.30;73.50;;;;;;4945118;28;20415;-58
2021/09/23 12:10:08;;;;;;;7.00;1.50;;;20.30;72.90;;;;;;4957327;28;20059;-59
2021/09/23 12:12:35;;;;;;;9.40;1.52;;;20.30;72.70;;;;;;4951256;28;20066;-58
2021/09/23 12:15:02;;;;;;;7.68;1.73;;;20.20;73.60;;;;;;4958067;28;20086;-56
2021/09/23 12:17:29;;;;;;;10.80;1.98;;;20.10;73.50;;;;;;4951063;28;20043;-57
2021/09/23 12:19:56;;;;;;;5.47;1.52;;;20.10;73.70;;;;;;4937407;28;20049;-58
2021/09/23 12:22:30;;;;;;;6.50;2.20;;;20.20;73.70;;;;;;4950577;28;20074;-57
2021/09/23 12:24:57;;;;;;;6.82;2.17;;;20.20;73.60;;;;;;4953516;28;20055;-57
2021/09/23 12:27:25;;;;;;;8.43;1.80;;;20.20;74.40;;;;;;4954288;28;20062;-55
2021/09/23 12:29:56;;;;;;;6.80;1.58;;;20.30;74.00;;;;;;4968881;28;20047;-56
2021/09/23 12:32:34;;;;;;;4.40;2.25;;;20.30;73.30;;;;;;4979540;28;20043;-57
2021/09/23 12:35:20;;;;;;;10.40;1.85;;;20.30;72.70;;;;;;4982988;28;20042;-57
2021/09/23 12:37:50;;;;;;;5.75;1.90;;;20.30;74.20;;;;;;4990885;28;20180;-55
2021/09/23 12:40:19;;;;;;;8.23;2.58;;;20.30;73.80;;;;;;4987068;28;20079;-56
2021/09/23 12:42:47;;;;;;;13.73;1.97;;;20.30;73.40;;;;;;4644591;28;10000549;-59
2021/09/23 12:45:18;;;;;;;4.93;2.03;;;20.40;73.40;;;;;;4991738;28;20054;-57
2021/09/23 12:47:48;;;;;;;4.93;1.70;;;20.50;73.40;;;;;;4997909;28;20057;-59
2021/09/23 12:50:20;;;;;;;5.65;1.33;;;20.60;73.10;;;;;;4989808;28;20061;-58
2021/09/23 12:52:49;;;;;;;4.18;1.63;;;20.60;72.90;;;;;;4998770;28;20049;-58
2021/09/23 12:55:24;;;;;;;4.43;1.63;;;20.70;72.70;;;;;;4998358;28;20050;-58
2021/09/23 12:57:54;;;;;;;7.45;1.38;;;20.80;72.00;;;;;;4997385;28;20057;-59
2021/09/23 13:00:30;;;;;;;4.35;1.33;;;20.90;71.30;;;;;;4976570;28;20057;-57
2021/09/23 13:03:02;;;;;;;4.95;1.42;;;21.00;71.60;;;;;;4990322;28;20125;-59
2021/09/23 13:05:31;;;;;;;7.05;1.50;;;21.20;71.20;;;;;;4996404;28;20446;-59
2021/09/23 13:07:59;;;;;;;8.90;1.83;;;21.40;71.60;;;;;;4987411;28;20422;-58
2021/09/23 13:10:25;;;;;;;5.20;1.33;;;21.30;71.00;;;;;;4996727;28;20065;-60
2021/09/23 13:13:00;;;;;;;3.85;1.25;;;21.20;70.90;;;;;;4999903;28;20085;-59
2021/09/23 13:15:39;;;;;;;6.28;1.35;;;21.00;71.00;;;;;;4996886;28;20077;-58